createdAt,value
2022-12-11T00:00:48.818Z,35.45
2022-12-11T00:03:18.729Z,39.05
2022-12-11T00:05:46.034Z,36.45
2022-12-11T00:08:13.734Z,34.00
2022-12-11T00:10:40.231Z,34.53
2022-12-11T00:13:06.685Z,36.72
2022-12-11T00:15:33.269Z,38.92
2022-12-11T00:17:59.759Z,37.20
2022-12-11T00:20:27.165Z,35.20
2022-12-11T00:22:53.600Z,36.08
2022-12-11T00:25:20.029Z,33.83
2022-12-11T00:27:47.209Z,34.72
2022-12-11T00:30:14.363Z,40.20
2022-12-11T00:32:40.850Z,34.45
2022-12-11T00:35:09.229Z,38.53
2022-12-11T00:37:36.014Z,35.58
2022-12-11T00:40:02.588Z,37.47
2022-12-11T00:42:29.058Z,36.70
2022-12-11T00:44:56.374Z,36.60
2022-12-11T00:47:22.873Z,33.45
2022-12-11T00:49:50.122Z,34.95
2022-12-11T00:52:17.974Z,33.03
2022-12-11T00:54:45.064Z,31.90
2022-12-11T00:57:11.589Z,35.85
2022-12-11T00:59:38.179Z,34.38
2022-12-11T01:02:04.716Z,37.50
2022-12-11T01:04:31.170Z,34.83
2022-12-11T01:06:57.832Z,36.60
2022-12-11T01:09:42.947Z,42.83
2022-12-11T01:12:09.441Z,43.92
2022-12-11T01:14:35.936Z,37.15
2022-12-11T01:17:02.621Z,35.85
2022-12-11T01:19:29.220Z,36.58
2022-12-11T01:21:55.667Z,35.33
2022-12-11T01:24:22.142Z,36.97
2022-12-11T01:26:48.694Z,39.60
2022-12-11T01:29:15.238Z,32.38
2022-12-11T01:31:41.824Z,39.38
2022-12-11T01:34:08.371Z,36.88
2022-12-11T01:36:35.018Z,36.40
2022-12-11T01:39:01.529Z,36.33
2022-12-11T01:41:28.130Z,36.53
2022-12-11T01:44:03.379Z,33.80
2022-12-11T01:46:31.767Z,31.35
2022-12-11T01:48:59.798Z,34.90
2022-12-11T01:51:29.059Z,34.03
2022-12-11T01:54:01.909Z,36.35
2022-12-11T01:56:32.326Z,36.13
2022-12-11T01:59:02.828Z,38.08
2022-12-11T02:01:37.377Z,37.13
2022-12-11T02:04:04.684Z,32.80
2022-12-11T02:06:35.482Z,34.90
2022-12-11T02:09:03.060Z,36.55
2022-12-11T02:11:51.651Z,36.25
2022-12-11T02:14:33.577Z,37.55
2022-12-11T02:17:05.721Z,38.30
2022-12-11T02:19:58.352Z,35.05
2022-12-11T02:22:33.565Z,32.33
2022-12-11T02:25:34.201Z,35.20
2022-12-11T02:28:26.953Z,36.20
2022-12-11T02:31:00.212Z,34.55
2022-12-11T02:33:49.814Z,35.17
2022-12-11T02:36:18.201Z,34.88
2022-12-11T02:38:50.663Z,35.00
2022-12-11T02:41:20.058Z,34.67
2022-12-11T02:43:49.331Z,33.17
2022-12-11T02:46:19.958Z,33.22
2022-12-11T02:48:48.965Z,35.65
2022-12-11T02:51:18.377Z,32.63
2022-12-11T02:53:46.457Z,35.75
2022-12-11T02:56:20.429Z,34.05
2022-12-11T02:58:55.310Z,35.55
2022-12-11T03:01:26.180Z,33.95
2022-12-11T03:03:54.184Z,42.65
2022-12-11T03:06:23.764Z,42.53
2022-12-11T03:08:52.003Z,40.13
2022-12-11T03:11:18.473Z,35.08
2022-12-11T03:13:45.064Z,43.30
2022-12-11T03:16:29.584Z,36.08
2022-12-11T03:19:03.668Z,37.80
2022-12-11T03:21:35.325Z,41.90
2022-12-11T03:24:05.134Z,36.88
2022-12-11T03:26:39.256Z,40.38
2022-12-11T03:29:16.487Z,43.15
2022-12-11T03:31:50.612Z,38.65
2022-12-11T03:34:22.810Z,40.38
2022-12-11T03:36:51.835Z,37.03
2022-12-11T03:39:33.210Z,38.15
2022-12-11T03:42:06.636Z,38.90
2022-12-11T03:44:35.416Z,43.10
2022-12-11T03:47:05.864Z,38.67
2022-12-11T03:49:37.016Z,36.35
2022-12-11T03:52:05.014Z,38.90
2022-12-11T03:54:31.825Z,40.13
2022-12-11T03:57:02.502Z,40.92
2022-12-11T03:59:28.938Z,39.58
2022-12-11T04:01:55.517Z,41.60
2022-12-11T04:04:22.176Z,42.33
2022-12-11T04:06:48.745Z,43.00
2022-12-11T04:09:15.281Z,41.35
2022-12-11T04:11:42.969Z,40.45
2022-12-11T04:14:33.198Z,37.15
2022-12-11T04:17:00.836Z,39.92
2022-12-11T04:19:45.888Z,46.45
2022-12-11T04:22:32.659Z,41.13
2022-12-11T04:24:59.760Z,40.35
2022-12-11T04:27:45.358Z,37.28
2022-12-11T04:30:15.581Z,38.17
2022-12-11T04:32:42.052Z,39.50
2022-12-11T04:35:10.123Z,40.90
2022-12-11T04:37:37.656Z,43.90
2022-12-11T04:40:07.207Z,45.95
2022-12-11T04:42:33.802Z,46.30
2022-12-11T04:45:00.226Z,45.10
2022-12-11T04:47:27.526Z,44.10
2022-12-11T04:49:54.081Z,40.92
2022-12-11T04:52:20.742Z,33.47
2022-12-11T04:54:47.474Z,36.40
2022-12-11T04:57:13.962Z,44.05
2022-12-11T04:59:40.441Z,38.60
2022-12-11T05:02:06.887Z,42.47
2022-12-11T05:04:34.904Z,43.33
2022-12-11T05:07:01.849Z,41.95
2022-12-11T05:09:28.605Z,44.15
2022-12-11T05:11:55.457Z,44.67
2022-12-11T05:14:22.010Z,43.85
2022-12-11T05:16:48.754Z,42.28
2022-12-11T05:19:15.306Z,40.00
2022-12-11T05:21:41.956Z,40.05
2022-12-11T05:24:08.749Z,37.40
2022-12-11T05:26:35.237Z,39.38
2022-12-11T05:29:01.767Z,34.50
2022-12-11T05:31:28.478Z,37.28
2022-12-11T05:33:55.044Z,34.20
2022-12-11T05:36:30.692Z,34.20
2022-12-11T05:38:58.594Z,34.92
2022-12-11T05:41:27.255Z,33.78
2022-12-11T05:43:54.009Z,36.05
2022-12-11T05:46:23.404Z,35.17
2022-12-11T05:48:52.179Z,34.17
2022-12-11T05:51:19.732Z,32.33
2022-12-11T05:53:48.466Z,36.42
2022-12-11T05:56:17.850Z,31.80
2022-12-11T05:58:45.489Z,31.42
2022-12-11T06:01:18.894Z,33.10
2022-12-11T06:03:45.641Z,32.13
2022-12-11T06:06:12.220Z,32.22
2022-12-11T06:08:38.814Z,29.73
2022-12-11T06:11:07.118Z,29.65
2022-12-11T06:13:33.832Z,33.63
2022-12-11T06:16:02.853Z,32.58
2022-12-11T06:18:29.529Z,33.17
2022-12-11T06:20:56.254Z,30.30
2022-12-11T06:23:23.077Z,31.75
2022-12-11T06:25:49.621Z,31.65
2022-12-11T06:28:16.190Z,29.20
2022-12-11T06:30:42.662Z,28.63
2022-12-11T06:33:09.133Z,33.50
2022-12-11T06:35:41.665Z,32.95
2022-12-11T06:38:09.352Z,32.83
2022-12-11T06:40:35.906Z,29.05
2022-12-11T06:43:02.350Z,32.78
2022-12-11T06:45:28.826Z,30.70
2022-12-11T06:47:55.700Z,32.95
2022-12-11T06:50:22.263Z,33.72
2022-12-11T06:52:48.689Z,29.73
2022-12-11T06:55:15.259Z,32.40
2022-12-11T06:57:41.791Z,33.38
2022-12-11T07:00:08.863Z,31.45
2022-12-11T07:02:35.586Z,32.00
2022-12-11T07:05:02.010Z,32.72
2022-12-11T07:07:28.449Z,30.90
2022-12-11T07:09:54.919Z,34.05
2022-12-11T07:12:21.440Z,31.83
2022-12-11T07:14:47.937Z,31.25
2022-12-11T07:17:14.394Z,30.73
2022-12-11T07:19:41.003Z,27.63
2022-12-11T07:22:07.489Z,30.73
2022-12-11T07:24:33.930Z,27.33
2022-12-11T07:27:00.359Z,30.25
2022-12-11T07:29:26.859Z,36.25
2022-12-11T07:31:54.097Z,31.83
2022-12-11T07:34:20.622Z,30.70
2022-12-11T07:36:47.091Z,35.30
2022-12-11T07:39:13.820Z,30.17
2022-12-11T07:41:40.380Z,29.90
2022-12-11T07:44:06.819Z,31.52
2022-12-11T07:46:34.011Z,27.63
2022-12-11T07:49:01.143Z,27.50
2022-12-11T07:51:30.447Z,28.80
2022-12-11T07:54:10.690Z,29.02
2022-12-11T07:56:37.207Z,30.33
2022-12-11T07:59:05.887Z,25.75
2022-12-11T08:01:36.484Z,28.27
2022-12-11T08:04:05.142Z,27.63
2022-12-11T08:06:34.776Z,30.45
2022-12-11T08:09:03.768Z,28.38
2022-12-11T08:11:30.675Z,31.02
2022-12-11T08:13:59.363Z,27.23
2022-12-11T08:16:26.853Z,31.90
2022-12-11T08:18:53.392Z,29.27
2022-12-11T08:21:24.221Z,26.50
2022-12-11T08:23:51.918Z,26.85
2022-12-11T08:26:21.903Z,26.77
2022-12-11T08:28:48.377Z,28.10
2022-12-11T08:31:16.470Z,28.95
2022-12-11T08:33:44.321Z,27.85
2022-12-11T08:36:13.630Z,27.02
2022-12-11T08:38:41.059Z,28.20
2022-12-11T08:41:09.790Z,29.95
2022-12-11T08:43:36.672Z,30.05
2022-12-11T08:46:03.245Z,31.98
2022-12-11T08:48:29.801Z,32.90
2022-12-11T08:51:02.793Z,29.02
2022-12-11T08:53:30.551Z,21.92
2022-12-11T08:56:18.625Z,32.45
2022-12-11T08:58:45.850Z,30.13
2022-12-11T09:01:21.607Z,29.05
2022-12-11T09:03:49.102Z,30.92
2022-12-11T09:06:18.946Z,32.03
2022-12-11T09:08:52.222Z,30.27
2022-12-11T09:11:22.599Z,23.27
2022-12-11T09:13:49.063Z,28.35
2022-12-11T09:16:17.720Z,28.75
2022-12-11T09:18:47.272Z,28.35
2022-12-11T09:21:15.926Z,32.13
2022-12-11T09:23:43.078Z,31.45
2022-12-11T09:26:13.549Z,31.58
2022-12-11T09:28:45.727Z,29.02
2022-12-11T09:31:15.862Z,29.20
2022-12-11T09:33:42.769Z,31.67
2022-12-11T09:36:10.619Z,33.67
2022-12-11T09:38:37.271Z,29.98
2022-12-11T09:41:18.190Z,28.95
2022-12-11T09:43:50.736Z,29.83
2022-12-11T09:46:17.785Z,30.75
2022-12-11T09:48:48.567Z,29.55
2022-12-11T09:51:31.463Z,27.83
2022-12-11T09:54:00.899Z,33.53
2022-12-11T09:56:52.626Z,28.20
2022-12-11T09:59:32.019Z,27.80
2022-12-11T10:02:13.831Z,26.67
2022-12-11T10:05:06.413Z,25.83
2022-12-11T10:08:07.482Z,28.27
2022-12-11T10:10:45.966Z,26.83
2022-12-11T10:13:37.401Z,28.60
2022-12-11T10:16:25.300Z,25.85
2022-12-11T10:18:53.090Z,25.23
2022-12-11T10:21:20.148Z,24.88
2022-12-11T10:23:56.078Z,27.73
2022-12-11T10:26:23.748Z,27.70
2022-12-11T10:28:50.728Z,26.92
2022-12-11T10:31:39.104Z,24.73
2022-12-11T10:34:43.513Z,29.52
2022-12-11T10:39:36.341Z,23.35
2022-12-11T10:42:16.067Z,23.63
2022-12-11T10:44:42.485Z,24.38
2022-12-11T10:47:18.039Z,24.50
2022-12-11T10:49:58.251Z,25.67
2022-12-11T10:52:38.373Z,25.85
2022-12-11T10:55:17.374Z,25.17
2022-12-11T10:57:44.038Z,26.17
2022-12-11T11:00:30.975Z,24.50
2022-12-11T11:02:58.519Z,27.05
2022-12-11T11:05:34.210Z,28.17
2022-12-11T11:08:04.727Z,25.42
2022-12-11T11:10:31.571Z,23.52
2022-12-11T11:13:02.377Z,22.90
2022-12-11T11:15:30.904Z,20.58
2022-12-11T11:18:09.853Z,26.50
2022-12-11T11:20:36.374Z,25.60
2022-12-11T11:23:14.217Z,21.13
2022-12-11T11:25:50.913Z,21.13
2022-12-11T11:28:25.710Z,23.95
2022-12-11T11:31:06.081Z,23.70
2022-12-11T11:33:35.267Z,19.92
2022-12-11T11:36:07.788Z,19.77
2022-12-11T11:39:02.135Z,21.23
2022-12-11T11:41:35.457Z,20.65
2022-12-11T11:44:07.180Z,19.80
2022-12-11T11:46:40.533Z,20.52
2022-12-11T11:49:12.878Z,19.67
2022-12-11T11:51:51.356Z,18.15
2022-12-11T11:54:25.459Z,17.90
2022-12-11T11:56:55.781Z,19.48
2022-12-11T11:59:39.107Z,20.33
2022-12-11T12:02:14.603Z,17.65
2022-12-11T12:04:42.811Z,17.13
2022-12-11T12:07:18.354Z,16.98
2022-12-11T12:10:12.917Z,16.52
2022-12-11T12:12:57.436Z,19.38
2022-12-11T12:15:38.297Z,15.55
2022-12-11T12:18:26.468Z,17.02
2022-12-11T12:21:10.021Z,20.50
2022-12-11T12:24:00.725Z,20.13
2022-12-11T12:26:31.335Z,20.88
2022-12-11T12:29:18.017Z,18.55
2022-12-11T12:31:50.451Z,19.10
2022-12-11T12:35:01.208Z,22.50
2022-12-11T12:37:49.622Z,23.33
2022-12-11T12:40:41.071Z,20.17
2022-12-11T12:43:14.474Z,26.42
2022-12-11T12:46:07.711Z,21.67
2022-12-11T12:48:34.439Z,21.40
2022-12-11T12:51:03.471Z,19.65
2022-12-11T12:53:33.807Z,19.35
2022-12-11T12:56:03.300Z,19.02
2022-12-11T12:58:35.550Z,21.48
2022-12-11T13:01:07.840Z,21.27
2022-12-11T13:03:49.382Z,22.02
2022-12-11T13:06:15.854Z,21.50
2022-12-11T13:08:51.735Z,19.90
2022-12-11T13:11:20.760Z,20.15
2022-12-11T13:14:22.126Z,20.63
2022-12-11T13:16:53.048Z,18.65
2022-12-11T13:19:25.476Z,22.75
2022-12-11T13:21:55.946Z,18.98
2022-12-11T13:24:22.385Z,18.75
2022-12-11T13:26:50.403Z,20.27
2022-12-11T13:29:36.763Z,19.20
2022-12-11T13:32:21.922Z,19.35
2022-12-11T13:38:29.443Z,18.50
2022-12-11T13:40:57.661Z,18.33
2022-12-11T13:43:27.755Z,19.67
2022-12-11T13:46:17.541Z,19.67
2022-12-11T13:48:47.761Z,20.38
2022-12-11T13:51:21.627Z,19.85
2022-12-11T13:53:48.197Z,27.77
2022-12-11T13:56:22.468Z,28.90
2022-12-11T13:58:49.155Z,33.15
2022-12-11T14:01:28.660Z,26.92
2022-12-11T14:03:59.005Z,25.63
2022-12-11T14:06:28.520Z,32.83
2022-12-11T14:08:59.442Z,26.25
2022-12-11T14:11:35.574Z,35.80
2022-12-11T14:14:04.819Z,32.72
2022-12-11T14:16:31.599Z,27.77
2022-12-11T14:19:05.547Z,27.95
2022-12-11T14:21:32.176Z,25.58
2022-12-11T14:24:01.443Z,30.88
2022-12-11T14:26:29.010Z,27.67
2022-12-11T14:28:55.715Z,34.03
2022-12-11T14:31:37.956Z,41.55
2022-12-11T14:34:15.672Z,37.58
2022-12-11T14:36:43.681Z,29.40
2022-12-11T14:39:18.946Z,29.85
2022-12-11T14:41:54.148Z,26.58
2022-12-11T14:44:24.212Z,32.25
2022-12-11T14:46:56.288Z,30.30
2022-12-11T14:49:22.768Z,26.05
2022-12-11T14:51:51.692Z,51.88
2022-12-11T14:54:33.913Z,47.95
2022-12-11T14:57:01.606Z,28.98
2022-12-11T14:59:32.222Z,27.20
2022-12-11T15:02:01.719Z,28.58
2022-12-11T15:04:33.155Z,41.55
2022-12-11T15:07:00.000Z,27.65
2022-12-11T15:09:40.655Z,46.95
2022-12-11T15:12:12.529Z,26.52
2022-12-11T15:14:50.232Z,30.67
2022-12-11T15:17:18.569Z,26.13
2022-12-11T15:19:51.643Z,31.90
2022-12-11T15:22:23.773Z,27.98
2022-12-11T15:24:52.549Z,30.15
2022-12-11T15:27:28.831Z,30.52
2022-12-11T15:29:55.481Z,33.30
2022-12-11T15:32:22.687Z,31.85
2022-12-11T15:35:00.084Z,30.33
2022-12-11T15:37:30.982Z,32.30
2022-12-11T15:39:59.910Z,29.83
2022-12-11T15:42:32.891Z,30.92
2022-12-11T15:44:59.918Z,29.60
2022-12-11T15:47:29.094Z,27.58
2022-12-11T15:50:23.717Z,27.88
2022-12-11T15:52:52.144Z,30.48
2022-12-11T15:55:20.492Z,29.55
2022-12-11T15:57:51.504Z,27.35
2022-12-11T16:00:19.503Z,28.55
2022-12-11T16:02:46.787Z,33.80
2022-12-11T16:05:14.595Z,32.67
2022-12-11T16:07:41.304Z,40.25
2022-12-11T16:10:13.836Z,38.03
2022-12-11T16:12:40.374Z,34.63
2022-12-11T16:15:07.343Z,38.05
2022-12-11T16:17:33.808Z,31.20
2022-12-11T16:20:00.263Z,31.77
2022-12-11T16:22:26.805Z,29.65
2022-12-11T16:24:54.839Z,36.25
2022-12-11T16:27:23.352Z,36.28
2022-12-11T16:29:50.793Z,33.97
2022-12-11T16:32:17.818Z,33.08
2022-12-11T16:34:44.941Z,34.95
2022-12-11T16:37:11.710Z,32.55
2022-12-11T16:39:38.848Z,29.80
2022-12-11T16:42:06.189Z,37.38
2022-12-11T16:44:32.919Z,31.17
2022-12-11T16:46:59.554Z,39.38
2022-12-11T16:49:26.272Z,32.45
2022-12-11T16:51:52.773Z,35.17
2022-12-11T16:54:19.401Z,34.55
2022-12-11T16:56:46.171Z,33.67
2022-12-11T16:59:12.992Z,32.63
2022-12-11T17:01:40.593Z,31.85
2022-12-11T17:04:07.454Z,35.20
2022-12-11T17:06:34.126Z,32.25
2022-12-11T17:09:00.893Z,35.42
2022-12-11T17:11:27.430Z,36.85
2022-12-11T17:13:55.586Z,33.90
2022-12-11T17:16:22.441Z,36.28
2022-12-11T17:18:48.957Z,38.13
2022-12-11T17:21:17.489Z,36.92
2022-12-11T17:23:45.123Z,36.72
2022-12-11T17:26:11.838Z,31.52
2022-12-11T17:28:39.170Z,33.15
2022-12-11T17:31:08.084Z,34.78
2022-12-11T17:33:35.419Z,37.05
2022-12-11T17:36:03.789Z,35.03
2022-12-11T17:38:30.572Z,37.47
2022-12-11T17:40:57.091Z,36.78
2022-12-11T17:43:23.710Z,35.30
2022-12-11T17:45:52.569Z,39.08
2022-12-11T17:48:22.416Z,39.47
2022-12-11T17:50:51.490Z,38.80
2022-12-11T17:53:19.961Z,41.25
2022-12-11T17:55:47.701Z,38.35
2022-12-11T17:58:17.412Z,45.08
2022-12-11T18:00:46.156Z,41.28
2022-12-11T18:03:13.274Z,45.83
2022-12-11T18:05:44.432Z,83.43
2022-12-11T18:08:31.868Z,44.60
2022-12-11T18:11:08.127Z,41.60
2022-12-11T18:13:34.810Z,47.17
2022-12-11T18:16:07.421Z,41.40
2022-12-11T18:18:34.386Z,43.53
2022-12-11T18:21:01.178Z,38.90
2022-12-11T18:23:28.211Z,39.17
2022-12-11T18:25:55.053Z,38.35
2022-12-11T18:28:21.563Z,39.97
2022-12-11T18:30:48.201Z,36.30
2022-12-11T18:33:14.959Z,36.72
2022-12-11T18:35:41.577Z,39.30
2022-12-11T18:38:08.460Z,38.60
2022-12-11T18:40:35.009Z,45.90
2022-12-11T18:43:01.542Z,44.80
2022-12-11T18:45:28.023Z,46.20
2022-12-11T18:47:56.433Z,43.10
2022-12-11T18:50:22.986Z,43.05
2022-12-11T18:52:53.594Z,47.28
2022-12-11T18:55:20.311Z,40.35
2022-12-11T18:57:46.841Z,34.88
2022-12-11T19:00:14.025Z,33.67
2022-12-11T19:02:40.455Z,35.10
2022-12-11T19:05:07.099Z,37.63
2022-12-11T19:07:33.629Z,30.90
2022-12-11T19:10:00.175Z,35.13
2022-12-11T19:12:26.618Z,33.50
2022-12-11T19:14:53.140Z,33.70
2022-12-11T19:17:19.651Z,38.95
2022-12-11T19:19:47.362Z,37.42
2022-12-11T19:22:15.025Z,40.50
2022-12-11T19:24:41.597Z,45.28
2022-12-11T19:27:13.229Z,57.70
2022-12-11T19:29:40.284Z,45.65
2022-12-11T19:32:06.844Z,56.10
2022-12-11T19:34:33.469Z,48.28
2022-12-11T19:37:00.178Z,48.50
2022-12-11T19:39:27.010Z,41.15
2022-12-11T19:41:53.509Z,36.85
2022-12-11T19:44:20.042Z,37.70
2022-12-11T19:46:46.792Z,37.78
2022-12-11T19:49:13.436Z,40.70
2022-12-11T19:51:41.722Z,40.80
2022-12-11T19:54:12.016Z,44.97
2022-12-11T19:56:38.698Z,45.30
2022-12-11T19:59:07.276Z,44.00
2022-12-11T20:01:36.398Z,44.35
2022-12-11T20:04:06.435Z,50.25
2022-12-11T20:06:35.936Z,45.63
2022-12-11T20:09:03.514Z,48.80
2022-12-11T20:11:31.850Z,48.97
2022-12-11T20:13:58.368Z,49.72
2022-12-11T20:16:53.256Z,48.75
2022-12-11T20:19:11.607Z,39.60
2022-12-11T20:21:38.080Z,54.40
2022-12-11T20:24:04.792Z,52.78
2022-12-11T20:26:32.537Z,47.95
2022-12-11T20:28:59.098Z,52.00
2022-12-11T20:31:26.573Z,42.85
2022-12-11T20:33:55.515Z,47.38
2022-12-11T20:36:23.065Z,45.92
2022-12-11T20:38:49.889Z,44.63
2022-12-11T20:41:19.983Z,46.05
2022-12-11T20:43:48.978Z,44.83
2022-12-11T20:46:17.760Z,42.55
2022-12-11T20:48:45.367Z,44.38
2022-12-11T20:51:14.041Z,46.25
2022-12-11T20:53:41.442Z,38.15
2022-12-11T20:56:18.205Z,42.63
2022-12-11T20:58:45.502Z,33.10
2022-12-11T21:01:21.558Z,31.13
2022-12-11T21:03:48.988Z,33.97
2022-12-11T21:06:25.867Z,34.78
2022-12-11T21:08:53.670Z,30.73
2022-12-11T21:11:20.878Z,28.10
2022-12-11T21:13:47.315Z,32.83
2022-12-11T21:16:13.898Z,31.80
2022-12-11T21:18:41.637Z,33.08
2022-12-11T21:21:08.139Z,30.33
2022-12-11T21:23:34.859Z,33.90
2022-12-11T21:26:01.517Z,47.38
2022-12-11T21:28:33.584Z,40.03
2022-12-11T21:31:04.452Z,41.08
2022-12-11T21:33:31.319Z,41.83
2022-12-11T21:35:59.474Z,37.65
2022-12-11T21:38:26.892Z,43.67
2022-12-11T21:40:54.280Z,43.92
2022-12-11T21:43:20.922Z,41.13
2022-12-11T21:46:02.838Z,43.60
2022-12-11T21:48:29.477Z,41.28
2022-12-11T21:51:03.686Z,41.17
2022-12-11T21:53:30.116Z,39.58
2022-12-11T21:55:56.533Z,39.78
2022-12-11T21:58:23.017Z,34.55
2022-12-11T22:00:49.612Z,38.28
2022-12-11T22:03:16.069Z,36.95
2022-12-11T22:05:42.536Z,38.60
2022-12-11T22:08:09.550Z,37.95
2022-12-11T22:10:36.459Z,42.10
2022-12-11T22:13:02.961Z,39.38
2022-12-11T22:15:29.458Z,37.00
2022-12-11T22:17:55.962Z,37.78
2022-12-11T22:20:22.437Z,35.72
2022-12-11T22:22:48.934Z,38.95
2022-12-11T22:25:15.598Z,35.40
2022-12-11T22:27:42.125Z,36.45
2022-12-11T22:30:09.307Z,38.80
2022-12-11T22:32:35.793Z,42.38
2022-12-11T22:35:02.929Z,35.60
2022-12-11T22:37:29.573Z,41.72
2022-12-11T22:39:56.121Z,37.13
2022-12-11T22:42:22.628Z,40.08
2022-12-11T22:44:49.412Z,40.95
2022-12-11T22:47:15.936Z,37.22
2022-12-11T22:49:42.476Z,38.75
2022-12-11T22:52:09.908Z,40.47
2022-12-11T22:54:41.694Z,40.28
2022-12-11T22:57:08.788Z,41.75
2022-12-11T22:59:35.838Z,37.47
2022-12-11T23:02:03.191Z,37.15
2022-12-11T23:04:29.855Z,37.72
2022-12-11T23:06:56.365Z,38.65
2022-12-11T23:09:23.022Z,40.40
2022-12-11T23:11:49.670Z,36.90
2022-12-11T23:14:17.628Z,36.85
2022-12-11T23:16:44.605Z,38.15
2022-12-11T23:19:12.294Z,40.70
2022-12-11T23:21:39.102Z,37.20
2022-12-11T23:24:06.200Z,41.50
2022-12-11T23:26:33.121Z,35.15
2022-12-11T23:29:00.310Z,41.75
2022-12-11T23:31:27.478Z,39.97
2022-12-11T23:33:54.238Z,36.95
2022-12-11T23:36:20.790Z,37.88
2022-12-11T23:38:52.588Z,37.67
2022-12-11T23:41:21.050Z,37.72
2022-12-11T23:43:47.538Z,37.30
2022-12-11T23:46:17.974Z,37.50
2022-12-11T23:48:44.773Z,38.78
2022-12-11T23:51:16.665Z,38.20
2022-12-11T23:53:43.875Z,38.10
2022-12-11T23:56:16.357Z,38.63
2022-12-11T23:58:43.020Z,35.15
